Time;durP1;ratioP1;P1;durP2;ratioP2;P2;SDS_P1;SDS_P2;PMS_P1;PMS_P2;Temp;Humidity;BMP_temperature;BMP_pressure;BME280_temperature;BME280_humidity;BME280_pressure;Samples;Min_cycle;Max_cycle;Signal;HPM_P1;HPM_P2
2022/08/11 00:00:12;;;;;;;5.88;5.28;;;;;;;23.56;55.37;101284.56;5148042;27;20378;-60
2022/08/11 00:02:45;;;;;;;6.65;5.57;;;;;;;23.46;55.61;101285.22;5148068;27;20382;-60
2022/08/11 00:05:18;;;;;;;5.93;5.33;;;;;;;23.51;55.33;101279.06;5148106;27;20409;-60
2022/08/11 00:07:53;;;;;;;8.55;5.78;;;;;;;23.49;55.64;101281.19;5147967;27;20369;-61
2022/08/11 00:10:22;;;;;;;6.50;5.90;;;;;;;23.37;56.26;101285.81;5146597;27;20381;-62
2022/08/11 00:12:55;;;;;;;6.10;5.53;;;;;;;23.34;56.04;101283.63;5145106;27;20991;-60
2022/08/11 00:15:23;;;;;;;7.53;5.97;;;;;;;23.33;56.53;101288.19;5145652;27;20534;-60
2022/08/11 00:17:56;;;;;;;6.57;5.85;;;;;;;23.28;56.63;101283.53;5145327;27;20759;-62
2022/08/11 00:20:28;;;;;;;6.60;5.70;;;;;;;23.33;56.61;101290.09;5145500;27;20370;-62
2022/08/11 00:23:02;;;;;;;6.20;5.70;;;;;;;23.33;56.39;101284.69;5145115;27;20366;-62
2022/08/11 00:25:28;;;;;;;7.57;6.22;;;;;;;23.32;56.56;101286.56;5099846;27;20465;-60
2022/08/11 00:27:54;;;;;;;8.07;6.18;;;;;;;23.36;56.28;101281.50;5133716;27;20362;-60
2022/08/11 00:30:19;;;;;;;9.40;6.63;;;;;;;23.46;56.08;101289.78;5133965;27;20377;-59
2022/08/11 00:32:57;;;;;;;7.47;6.50;;;;;;;23.47;55.79;101283.31;5133583;27;20410;-60
2022/08/11 00:35:27;;;;;;;7.00;6.13;;;;;;;23.35;56.30;101280.66;5133362;27;20784;-60
2022/08/11 00:37:54;;;;;;;7.70;6.15;;;;;;;23.34;55.94;101278.22;5133148;27;20374;-61
2022/08/11 00:41:47;;;;;;;6.65;5.95;;;;;;;23.38;56.00;101282.88;5086473;27;20455;-60
2022/08/11 00:44:32;;;;;;;6.18;5.57;;;;;;;23.43;55.84;101280.28;5087202;28;20382;-60
2022/08/11 00:47:06;;;;;;;6.68;6.05;;;;;;;23.45;55.70;101264.63;5087390;28;20374;-61
2022/08/11 00:49:50;;;;;;;6.70;6.10;;;;;;;23.52;55.48;101269.88;5087306;28;20379;-61
2022/08/11 00:52:24;;;;;;;7.85;5.80;;;;;;;23.57;55.54;101275.41;5087368;28;20381;-62
2022/08/11 00:55:02;;;;;;;6.45;5.50;;;;;;;23.53;55.31;101268.00;5087183;28;20420;-60
2022/08/11 00:58:06;;;;;;;6.35;5.75;;;;;;;23.57;54.69;101274.56;5087225;28;20374;-62
2022/08/11 01:00:33;;;;;;;6.30;5.80;;;;;;;23.52;54.75;101275.31;5087086;28;20459;-61
2022/08/11 01:05:55;;;;;;;6.22;5.50;;;;;;;23.50;54.62;101271.19;5066351;28;20404;-62
2022/08/11 01:08:39;;;;;;;6.63;6.00;;;;;;;23.49;54.30;101262.25;5066900;28;20399;-60
2022/08/11 01:11:30;;;;;;;8.13;5.88;;;;;;;23.44;54.28;101265.69;5067295;28;20427;-60
2022/08/11 01:14:05;;;;;;;6.68;5.93;;;;;;;23.44;54.70;101276.53;5066853;28;20380;-62
2022/08/11 01:17:24;;;;;;;7.10;6.40;;;;;;;23.48;54.32;101272.25;5067447;28;20475;-61
2022/08/11 01:19:50;;;;;;;8.00;6.23;;;;;;;23.50;54.33;101268.47;5067095;28;20392;-63
2022/08/11 01:22:18;;;;;;;7.03;6.40;;;;;;;23.47;54.69;101261.69;5067062;28;20380;-61
2022/08/11 01:25:15;;;;;;;7.47;6.50;;;;;;;23.42;54.74;101267.00;5066899;28;20411;-61
2022/08/11 01:28:07;;;;;;;8.57;6.60;;;;;;;23.43;55.05;101266.75;5066797;28;20376;-61
2022/08/11 01:30:58;;;;;;;7.03;6.43;;;;;;;23.36;55.25;101263.38;5066770;28;20897;-59
2022/08/11 01:34:01;;;;;;;7.20;6.60;;;;;;;23.40;55.06;101258.28;5057982;28;20398;-60
2022/08/11 01:39:41;;;;;;;8.15;6.47;;;;;;;23.36;55.35;101262.56;5086324;27;20745;-61
2022/08/11 01:46:52;;;;;;;7.10;6.40;;;;;;;23.42;55.20;101269.69;5086379;27;20407;-62
2022/08/11 01:49:39;;;;;;;7.18;6.40;;;;;;;23.47;55.03;101273.31;5087388;28;20400;-60
2022/08/11 01:52:28;;;;;;;7.70;6.55;;;;;;;23.47;54.87;101262.47;5087641;28;20730;-60
2022/08/11 01:55:17;;;;;;;6.90;6.20;;;;;;;23.46;54.85;101268.13;5087256;28;20763;-60
2022/08/11 01:57:55;;;;;;;7.22;6.53;;;;;;;23.43;55.12;101250.50;5087059;28;20374;-61
2022/08/11 02:00:29;;;;;;;7.13;6.30;;;;;;;23.41;55.02;101252.66;5087594;28;20375;-60
2022/08/11 02:03:11;;;;;;;6.50;5.97;;;;;;;23.46;54.92;101258.16;5086799;28;20427;-61
2022/08/11 02:06:01;;;;;;;6.73;6.03;;;;;;;23.43;55.12;101253.22;5086985;28;20414;-60
2022/08/11 02:09:26;;;;;;;6.90;6.20;;;;;;;23.44;55.16;101251.31;5106799;27;20454;-61
2022/08/11 02:12:00;;;;;;;6.93;6.23;;;;;;;23.44;54.90;101246.75;5107643;28;20404;-60
2022/08/11 02:15:05;;;;;;;7.20;6.50;;;;;;;23.46;55.10;101254.59;5107416;28;20391;-61
2022/08/11 02:17:47;;;;;;;7.15;6.53;;;;;;;23.42;55.06;101253.47;5107137;28;20530;-60
2022/08/11 02:26:19;;;;;;;7.50;6.03;;;;;;;23.45;55.32;101258.41;5107515;28;20388;-62
2022/08/11 02:29:36;;;;;;;7.25;6.28;;;;;;;23.46;55.08;101255.44;5107101;28;20428;-61
2022/08/11 02:39:02;;;;;;;8.57;6.65;;;;;;;23.50;55.30;101253.09;5095353;27;2059020;-61
2022/08/11 02:44:35;;;;;;;8.60;6.45;;;;;;;23.46;55.28;101252.75;5148696;27;20395;-60
2022/08/11 02:51:08;;;;;;;8.25;6.70;;;;;;;23.48;55.58;101255.22;5148872;27;20767;-60
2022/08/11 02:54:06;;;;;;;7.40;6.40;;;;;;;23.48;55.60;101253.31;5148561;27;20377;-60
2022/08/11 02:56:43;;;;;;;8.00;6.93;;;;;;;23.47;55.59;101245.44;5128669;27;20400;-62
2022/08/11 02:59:49;;;;;;;10.07;7.07;;;;;;;23.51;55.50;101260.13;5148534;27;20383;-61
2022/08/11 03:02:40;;;;;;;8.00;7.00;;;;;;;23.54;55.33;101265.06;5148330;27;20416;-59
2022/08/11 03:05:25;;;;;;;7.70;6.72;;;;;;;23.53;55.53;101260.69;5148289;27;20369;-60
2022/08/11 03:08:21;;;;;;;9.90;6.90;;;;;;;23.56;55.41;101262.91;5148451;27;20409;-60
2022/08/11 03:16:56;;;;;;;10.43;7.15;;;;;;;23.44;55.68;101265.69;5148262;27;20708;-61
2022/08/11 03:19:34;;;;;;;7.55;6.75;;;;;;;23.49;55.45;101273.06;5130280;27;20373;-60
2022/08/11 03:22:15;;;;;;;13.02;7.47;;;;;;;23.48;55.47;101276.84;5148150;27;20370;-60
2022/08/11 03:25:02;;;;;;;7.60;6.90;;;;;;;23.48;55.19;101277.66;5148171;27;20381;-60
2022/08/11 03:27:38;;;;;;;7.97;7.23;;;;;;;23.44;55.28;101276.53;5147882;27;20465;-60
2022/08/11 03:30:26;;;;;;;6.80;6.15;;;;;;;23.16;55.49;101269.22;5129591;27;20405;-59
2022/08/11 03:34:36;;;;;;;8.05;6.35;;;;;;;23.15;55.98;101270.25;5066148;28;20461;-61
2022/08/11 03:37:51;;;;;;;7.30;6.47;;;;;;;23.08;56.27;101280.41;5067243;28;20486;-61
2022/08/11 03:41:41;;;;;;;8.93;6.57;;;;;;;23.01;56.14;101274.28;5067060;28;20387;-61
2022/08/11 03:43:25;;;;;;;8.75;7.07;;;;;;;23.07;56.30;101281.47;5066669;28;20423;-61
2022/08/11 03:46:11;;;;;;;7.75;6.38;;;;;;;23.02;56.45;101273.22;5066774;28;20380;-60
2022/08/11 03:48:45;;;;;;;12.55;6.40;;;;;;;23.12;56.17;101275.34;5066689;28;20892;-61
2022/08/11 03:51:30;;;;;;;9.30;6.53;;;;;;;23.17;56.07;101267.31;5066817;28;20380;-60
2022/08/11 03:54:19;;;;;;;8.67;7.33;;;;;;;23.24;56.00;101271.53;5066734;28;20465;-61
2022/08/11 03:56:47;;;;;;;13.70;6.70;;;;;;;23.33;55.91;101271.16;5066723;28;20453;-61
2022/08/11 03:59:41;;;;;;;7.13;6.53;;;;;;;23.40;55.70;101274.53;5067026;28;20379;-61
2022/08/11 04:02:28;;;;;;;8.00;6.57;;;;;;;23.37;55.32;101273.13;5032545;28;20794;-63
2022/08/11 04:04:56;;;;;;;9.20;6.20;;;;;;;23.41;54.91;101273.47;5026787;28;20426;-60
2022/08/11 04:07:37;;;;;;;7.30;6.25;;;;;;;23.40;54.98;101267.22;5026791;28;20402;-60
2022/08/11 04:10:14;;;;;;;7.90;6.10;;;;;;;23.43;54.93;101271.34;5026647;28;20466;-61
2022/08/11 04:12:57;;;;;;;7.60;5.70;;;;;;;23.32;54.73;101266.78;5026593;28;20422;-60
2022/08/11 04:16:03;;;;;;;6.95;5.10;;;;;;;23.29;54.47;101266.22;5026648;28;20491;-60
2022/08/11 04:18:47;;;;;;;6.47;5.47;;;;;;;23.35;54.54;101274.44;5026537;28;20395;-60
2022/08/11 04:21:34;;;;;;;8.43;5.72;;;;;;;23.34;54.29;101270.91;5026466;28;20403;-60
2022/08/11 04:24:33;;;;;;;6.28;5.68;;;;;;;23.39;54.65;101281.00;5026169;28;20392;-60
2022/08/11 04:27:26;;;;;;;8.73;5.83;;;;;;;23.39;54.99;101276.41;5026259;28;20410;-60
2022/08/11 04:30:20;;;;;;;9.88;6.60;;;;;;;23.50;54.68;101282.00;5026017;28;20386;-60
2022/08/11 04:32:57;;;;;;;7.30;6.30;;;;;;;24.02;53.14;101268.31;5017650;28;20526;-61
2022/08/11 04:35:42;;;;;;;6.70;5.40;;;;;;;24.51;51.05;101270.41;5026193;28;20392;-60
2022/08/11 04:38:16;;;;;;;6.17;5.20;;;;;;;24.86;50.07;101266.56;5025926;28;20482;-59
2022/08/11 04:41:19;;;;;;;7.05;5.05;;;;;;;25.37;48.89;101268.00;5026218;28;20402;-60
2022/08/11 04:44:16;;;;;;;5.90;5.30;;;;;;;25.82;47.64;101260.53;5025211;28;20916;-60
2022/08/11 04:46:47;;;;;;;6.68;5.30;;;;;;;26.51;46.11;101262.41;5017829;28;20844;-60
2022/08/11 05:01:40;;;;;;;6.90;5.77;;;;;;;29.29;40.44;101271.44;5017116;28;20774;-61
2022/08/11 05:07:14;;;;;;;7.78;6.10;;;;;;;29.45;39.87;101260.41;5015721;28;20403;-60
2022/08/11 05:10:12;;;;;;;6.75;5.80;;;;;;;30.19;38.42;101261.16;5012623;28;20432;-59
2022/08/11 05:12:42;;;;;;;8.35;6.60;;;;;;;29.04;40.35;101264.16;5006725;28;20524;-60
2022/08/11 05:35:27;;;;;;;11.05;6.30;;;;;;;27.66;42.83;101262.53;5018734;28;20399;-59
2022/08/11 05:57:28;;;;;;;6.60;6.00;;;;;;;34.57;30.54;101258.06;5013438;28;20458;-60
2022/08/11 06:00:09;;;;;;;6.57;5.40;;;;;;;36.20;27.98;101257.94;5015371;28;20390;-61
2022/08/11 06:02:50;;;;;;;7.25;5.60;;;;;;;36.41;27.92;101260.75;5012790;28;20423;-61
2022/08/11 06:05:16;;;;;;;8.20;5.63;;;;;;;38.08;26.04;101263.78;5024995;28;20391;-61
2022/08/11 06:07:42;;;;;;;7.78;6.10;;;;;;;38.16;25.37;101249.03;5021589;28;20390;-62
2022/08/11 06:10:09;;;;;;;7.57;6.50;;;;;;;38.67;24.91;101246.72;5023021;28;20825;-60
2022/08/11 06:12:36;;;;;;;6.93;6.30;;;;;;;39.40;23.78;101242.13;5018836;28;20415;-60
2022/08/11 06:15:09;;;;;;;7.70;6.90;;;;;;;37.85;25.54;101247.59;5017170;28;20398;-61
2022/08/11 06:17:43;;;;;;;9.07;6.93;;;;;;;36.26;27.70;101253.84;5016710;28;20407;-61
2022/08/11 06:20:11;;;;;;;8.20;7.40;;;;;;;39.05;24.39;101245.50;5015360;28;20442;-61
2022/08/11 06:22:38;;;;;;;8.77;7.20;;;;;;;42.00;21.04;101230.81;5014236;28;20380;-61
2022/08/11 06:25:06;;;;;;;8.25;7.45;;;;;;;38.26;25.13;101248.59;5012776;28;20384;-62
2022/08/11 06:27:35;;;;;;;8.10;7.30;;;;;;;35.23;28.97;101258.06;5012451;28;20903;-60
2022/08/11 06:30:12;;;;;;;8.20;7.50;;;;;;;33.52;31.62;101264.97;5011549;28;20443;-61
2022/08/11 06:32:40;;;;;;;8.57;7.70;;;;;;;32.64;33.33;101257.03;5016565;28;20426;-61
2022/08/11 06:35:18;;;;;;;9.27;6.87;;;;;;;32.25;34.08;101264.63;5016223;28;20384;-60
2022/08/11 06:38:08;;;;;;;7.90;6.70;;;;;;;31.84;34.79;101259.84;5023398;28;20397;-61
2022/08/11 06:43:57;;;;;;;7.63;6.93;;;;;;;31.18;35.86;101259.75;5022173;28;20915;-59
2022/08/11 06:46:31;;;;;;;7.82;7.00;;;;;;;31.15;36.04;101260.34;5021631;28;20398;-61
2022/08/11 06:49:01;;;;;;;7.95;7.25;;;;;;;30.75;36.30;101265.22;5015599;28;20446;-59
2022/08/11 06:51:28;;;;;;;9.82;8.35;;;;;;;30.12;37.71;101266.16;5017994;28;20386;-60
2022/08/11 06:53:59;;;;;;;8.47;7.53;;;;;;;29.72;38.26;101268.13;5012501;28;20420;-59
2022/08/11 07:02:29;;;;;;;8.43;7.50;;;;;;;28.66;41.12;101273.91;5016652;28;20411;-61
2022/08/11 07:05:06;;;;;;;9.15;8.13;;;;;;;28.48;41.29;101273.38;5012433;28;20396;-62
2022/08/11 07:16:33;;;;;;;10.65;8.35;;;;;;;28.11;42.23;101285.44;5013689;28;20422;-60
2022/08/11 07:30:33;;;;;;;9.70;8.73;;;;;;;27.70;43.68;101284.59;5019089;28;20772;-61
2022/08/11 07:33:01;;;;;;;9.90;9.02;;;;;;;27.63;43.50;101272.06;5017785;28;20427;-60
2022/08/11 07:35:34;;;;;;;10.10;8.15;;;;;;;27.81;43.52;101281.59;5016381;28;20384;-61
2022/08/11 07:38:10;;;;;;;8.95;7.70;;;;;;;28.36;42.41;101270.97;5016037;28;20479;-61
2022/08/11 07:40:37;;;;;;;8.75;7.63;;;;;;;28.65;42.14;101266.78;5015139;28;20949;-61
2022/08/11 07:43:05;;;;;;;9.10;7.63;;;;;;;28.74;41.59;101273.34;5017359;28;20418;-60
2022/08/11 07:53:49;;;;;;;10.55;8.85;;;;;;;28.97;41.21;101274.56;5018498;28;20472;-60
2022/08/11 07:56:18;;;;;;;8.57;7.73;;;;;;;29.44;40.34;101275.16;5011891;28;20474;-60
2022/08/11 08:18:06;;;;;;;8.70;7.73;;;;;;;29.50;40.34;101272.13;5009587;28;20822;-62
2022/08/11 08:20:37;;;;;;;9.35;8.38;;;;;;;29.44;40.39;101269.69;5011619;28;20398;-60
2022/08/11 08:23:04;;;;;;;8.50;7.70;;;;;;;29.46;40.53;101271.06;5013151;28;20438;-60
2022/08/11 08:25:39;;;;;;;8.45;7.65;;;;;;;29.60;40.14;101268.47;5013189;28;20384;-60
2022/08/11 08:28:08;;;;;;;8.20;7.50;;;;;;;29.83;39.93;101271.63;5013168;28;20879;-60
2022/08/11 08:30:49;;;;;;;8.27;7.47;;;;;;;29.85;39.88;101267.50;5013131;28;20507;-61
2022/08/11 08:33:20;;;;;;;9.27;8.07;;;;;;;29.77;40.19;101275.50;5012436;28;20937;-60
2022/08/11 08:35:49;;;;;;;9.48;8.32;;;;;;;29.73;40.12;101276.03;5012775;28;20908;-60
2022/08/11 08:38:15;;;;;;;8.63;7.83;;;;;;;30.01;39.47;101270.91;5012961;28;20758;-60
2022/08/11 08:40:44;;;;;;;9.30;8.40;;;;;;;30.27;38.94;101268.75;5012884;28;20393;-60
2022/08/11 08:43:14;;;;;;;10.00;8.52;;;;;;;30.42;38.46;101262.31;5012914;28;20388;-60
2022/08/11 08:45:41;;;;;;;8.95;7.75;;;;;;;30.36;38.49;101268.13;5012794;28;20376;-60
2022/08/11 08:48:19;;;;;;;7.90;7.13;;;;;;;30.46;38.56;101265.28;5012896;28;20474;-60
2022/08/11 08:51:38;;;;;;;9.55;7.53;;;;;;;30.63;38.42;101271.13;5012690;28;20916;-62
2022/08/11 08:53:51;;;;;;;9.10;8.20;;;;;;;30.79;37.53;101270.91;5014414;28;20432;-60
2022/08/11 08:56:19;;;;;;;9.02;8.18;;;;;;;30.78;37.82;101253.69;5012422;28;20380;-60
2022/08/11 08:58:48;;;;;;;8.77;7.97;;;;;;;30.76;38.21;101255.09;5012481;28;20405;-60
2022/08/11 09:01:19;;;;;;;10.50;9.45;;;;;;;30.56;38.07;101256.13;5012547;28;20387;-61
2022/08/11 09:03:44;;;;;;;10.67;8.40;;;;;;;30.52;38.51;101257.84;5011214;28;20785;-60
2022/08/11 09:06:11;;;;;;;10.23;9.23;;;;;;;30.49;38.25;101254.59;5012531;28;20392;-59
2022/08/11 09:08:39;;;;;;;10.75;9.23;;;;;;;30.30;38.51;101254.47;5012723;28;20388;-62
2022/08/11 09:13:50;;;;;;;9.63;8.63;;;;;;;30.41;38.66;101254.41;5012147;28;20554;-60
2022/08/11 09:16:17;;;;;;;9.27;7.63;;;;;;;30.47;38.22;101245.84;5012028;28;20838;-60
2022/08/11 09:18:43;;;;;;;9.43;8.53;;;;;;;30.38;38.39;101239.41;5011924;28;20381;-60
2022/08/11 09:21:14;;;;;;;9.45;8.55;;;;;;;30.26;38.45;101253.44;5011930;28;20475;-60
2022/08/11 09:29:11;;;;;;;7.80;7.07;;;;;;;29.54;39.16;101242.31;5011912;28;20391;-61
2022/08/11 09:31:37;;;;;;;8.57;7.77;;;;;;;29.59;39.29;101227.81;5011968;28;20391;-60
2022/08/11 09:34:02;;;;;;;9.43;7.60;;;;;;;29.60;39.59;101227.50;5011525;28;20474;-59
2022/08/11 09:42:01;;;;;;;7.63;6.50;;;;;;;29.02;39.91;101221.88;5011602;28;20387;-60
2022/08/11 09:44:48;;;;;;;7.10;6.40;;;;;;;29.01;39.74;101215.63;5011904;28;20547;-59
2022/08/11 09:47:27;;;;;;;7.65;6.82;;;;;;;29.24;39.88;101233.22;5011885;28;20384;-60
2022/08/11 09:49:58;;;;;;;7.57;6.85;;;;;;;29.14;39.92;101220.47;5011685;28;20392;-60
2022/08/11 09:52:25;;;;;;;6.25;5.70;;;;;;;28.97;39.65;101214.53;5011546;28;20519;-59
2022/08/11 09:54:52;;;;;;;7.78;5.53;;;;;;;29.16;39.68;101223.72;5011701;28;20403;-60
2022/08/11 10:00:07;;;;;;;7.05;6.05;;;;;;;29.29;39.28;101222.28;5011629;28;20395;-60
2022/08/11 10:02:35;;;;;;;7.22;6.20;;;;;;;29.02;39.30;101211.78;5011236;28;20902;-60
2022/08/11 10:07:51;;;;;;;8.73;6.45;;;;;;;28.81;40.07;101204.81;5011434;28;20948;-60
2022/08/11 10:10:22;;;;;;;6.63;5.90;;;;;;;28.63;40.22;101203.53;5009915;28;20376;-60
2022/08/11 10:16:48;;;;;;;6.78;6.05;;;;;;;28.62;40.38;101200.00;5092293;27;20492;-61
2022/08/11 10:19:18;;;;;;;6.32;5.70;;;;;;;28.59;40.15;101201.38;5148489;27;20373;-61
2022/08/11 10:27:20;;;;;;;6.32;5.72;;;;;;;28.47;39.42;101189.94;5148696;27;20376;-61
2022/08/11 10:35:16;;;;;;;8.48;5.28;;;;;;;28.94;39.15;101177.72;5148530;27;20429;-61
2022/08/11 10:37:44;;;;;;;6.53;5.85;;;;;;;28.92;39.04;101185.38;5148525;27;20781;-61
2022/08/11 10:40:17;;;;;;;7.38;5.95;;;;;;;28.84;39.29;101166.03;5148436;27;20377;-61
2022/08/11 10:43:01;;;;;;;5.75;5.22;;;;;;;28.91;38.63;101166.56;5129842;27;20883;-60
2022/08/11 10:48:21;;;;;;;5.38;4.80;;;;;;;29.04;37.68;101154.19;5147981;27;20434;-61
2022/08/11 10:59:08;;;;;;;4.03;3.60;;;;;;;30.03;34.04;101140.22;5147950;27;20393;-61
2022/08/11 11:01:37;;;;;;;5.88;4.25;;;;;;;30.14;34.45;101140.91;5147759;27;20433;-61
2022/08/11 11:04:21;;;;;;;5.13;4.50;;;;;;;29.99;34.70;101135.63;5147790;27;20393;-61
2022/08/11 11:07:26;;;;;;;4.97;4.47;;;;;;;29.74;34.85;101132.88;5147824;27;20377;-62
2022/08/11 11:10:01;;;;;;;4.70;4.30;;;;;;;29.84;34.75;101120.22;5101577;27;20853;-61
2022/08/11 11:18:18;;;;;;;4.93;3.95;;;;;;;30.10;33.95;101121.53;5127874;27;20756;-61
2022/08/11 11:20:59;;;;;;;6.03;3.70;;;;;;;30.31;33.38;101119.38;5127021;28;20872;-61
2022/08/11 11:23:35;;;;;;;4.75;4.00;;;;;;;30.35;33.76;101111.44;5121971;28;20478;-61
2022/08/11 11:26:33;;;;;;;4.32;4.00;;;;;;;30.15;33.50;101111.66;5092782;28;20382;-60
2022/08/11 11:29:34;;;;;;;4.57;3.80;;;;;;;30.15;33.60;101103.47;5092756;28;20878;-60
2022/08/11 11:32:34;;;;;;;4.70;4.00;;;;;;;29.95;34.16;101107.25;5078734;28;20951;-61
2022/08/11 11:35:14;;;;;;;6.28;3.92;;;;;;;29.95;33.72;101107.25;5093390;28;20380;-60
2022/08/11 11:37:43;;;;;;;4.78;4.00;;;;;;;29.77;33.57;101115.09;5106610;28;20460;-61
2022/08/11 11:40:14;;;;;;;5.03;3.70;;;;;;;29.76;33.43;101108.00;5098814;28;20378;-60
2022/08/11 11:42:43;;;;;;;3.93;3.63;;;;;;;29.70;33.58;101107.19;5099719;28;20800;-60
2022/08/11 11:45:10;;;;;;;6.05;4.30;;;;;;;29.66;34.13;101108.91;5101725;28;20453;-59
2022/08/11 11:47:37;;;;;;;4.40;3.97;;;;;;;29.53;33.87;101096.72;5096469;28;20388;-60
2022/08/11 11:50:04;;;;;;;4.40;3.80;;;;;;;29.55;33.98;101089.06;5099569;28;20737;-62
2022/08/11 11:52:31;;;;;;;3.92;3.60;;;;;;;29.52;33.39;101084.16;5076633;28;20910;-61
2022/08/11 11:54:59;;;;;;;4.60;3.30;;;;;;;29.49;32.97;101083.94;5107758;28;20375;-60
2022/08/11 12:02:58;;;;;;;5.10;3.10;;;;;;;29.48;32.46;101079.59;5104892;28;20423;-61
2022/08/11 12:05:26;;;;;;;4.90;3.33;;;;;;;29.57;32.42;101077.00;5103186;28;20383;-60
2022/08/11 12:13:39;;;;;;;3.70;3.20;;;;;;;29.54;32.14;101071.03;5095603;28;20392;-61
2022/08/11 12:13:44;;;;;;;3.30;2.80;;;;;;;29.57;30.70;101072.38;5097693;28;20423;-62
2022/08/11 12:17:33;;;;;;;3.28;2.97;;;;;;;29.59;30.56;101070.19;5026913;28;20991;-61
2022/08/11 12:19:59;;;;;;;3.20;2.90;;;;;;;29.54;29.92;101057.38;5013550;28;20405;-62
2022/08/11 12:27:54;;;;;;;3.85;3.08;;;;;;;29.51;29.54;101057.97;5014486;28;20904;-61
2022/08/11 12:30:20;;;;;;;3.17;2.87;;;;;;;29.48;29.54;101050.34;5012978;28;20402;-61
2022/08/11 12:32:46;;;;;;;3.53;2.90;;;;;;;29.47;29.24;101051.44;5007271;28;20412;-61
2022/08/11 12:35:14;;;;;;;2.72;2.53;;;;;;;29.50;28.97;101042.69;5007004;28;20831;-61
2022/08/11 12:38:02;;;;;;;4.18;3.03;;;;;;;29.71;29.54;101042.44;5005931;28;20455;-61
2022/08/11 12:46:13;;;;;;;4.13;2.77;;;;;;;29.98;28.41;101041.88;5006829;28;20428;-61
2022/08/11 12:54:51;;;;;;;2.90;2.70;;;;;;;29.96;28.40;101033.13;5005855;28;20452;-62
2022/08/11 13:05:43;;;;;;;3.05;2.55;;;;;;;30.08;28.05;101021.78;5006773;28;20417;-61
2022/08/11 13:08:09;;;;;;;3.55;2.60;;;;;;;30.03;27.91;101017.19;5006745;28;20451;-61
2022/08/11 13:13:20;;;;;;;3.90;2.30;;;;;;;30.05;27.80;101025.09;5006416;28;20493;-61
2022/08/11 13:15:50;;;;;;;4.70;2.67;;;;;;;30.11;27.79;101024.75;5011871;28;20427;-61
2022/08/11 13:18:21;;;;;;;2.97;2.50;;;;;;;30.07;28.06;101025.63;5026152;28;20386;-61
2022/08/11 13:20:48;;;;;;;2.95;2.65;;;;;;;30.10;27.61;101025.03;5026175;28;20402;-62
2022/08/11 13:23:15;;;;;;;4.72;2.90;;;;;;;30.19;27.97;101025.19;5026028;28;20422;-61
2022/08/11 13:25:42;;;;;;;2.70;2.50;;;;;;;30.24;28.08;101028.69;5025956;28;20434;-61
2022/08/11 13:28:11;;;;;;;5.18;3.00;;;;;;;30.27;28.55;101022.63;5016982;28;20383;-62
2022/08/11 13:33:21;;;;;;;3.60;2.40;;;;;;;30.41;27.60;101025.44;5012798;28;20769;-60
2022/08/11 13:35:50;;;;;;;4.57;2.50;;;;;;;30.51;27.05;101021.75;5012423;28;20419;-60
2022/08/11 13:38:18;;;;;;;3.42;2.20;;;;;;;30.59;26.60;101023.00;5012766;28;20889;-61
2022/08/11 13:40:45;;;;;;;3.42;2.47;;;;;;;30.60;26.47;101019.16;5012376;28;20446;-62
2022/08/11 13:43:14;;;;;;;3.47;2.30;;;;;;;30.67;26.68;101014.13;5012357;28;20912;-61
2022/08/11 13:45:41;;;;;;;3.50;2.25;;;;;;;30.68;26.40;101019.31;5012243;28;20403;-60
2022/08/11 13:48:09;;;;;;;2.40;2.20;;;;;;;30.80;26.15;101024.28;5012193;28;20766;-61
2022/08/11 13:53:24;;;;;;;2.80;2.47;;;;;;;30.89;26.74;101013.47;5012205;28;20438;-61
2022/08/11 13:55:50;;;;;;;3.60;2.60;;;;;;;30.95;26.60;101017.78;5012232;28;20511;-61
2022/08/11 13:58:16;;;;;;;3.75;2.50;;;;;;;30.93;26.76;101016.47;5011982;28;20770;-60
2022/08/11 14:00:48;;;;;;;2.38;2.17;;;;;;;30.98;27.24;101010.91;5011965;28;20766;-60
2022/08/11 14:03:18;;;;;;;3.55;2.90;;;;;;;31.09;27.49;101006.06;5012248;28;20422;-61
2022/08/11 14:05:48;;;;;;;3.67;2.70;;;;;;;31.16;27.58;101012.75;5011953;28;20442;-61
2022/08/11 14:08:17;;;;;;;3.90;3.10;;;;;;;31.20;27.76;101004.75;5012200;28;20495;-60
2022/08/11 14:10:46;;;;;;;3.15;2.60;;;;;;;31.18;27.23;101006.97;5011854;28;20390;-60
2022/08/11 14:16:06;;;;;;;3.47;2.97;;;;;;;31.32;28.18;101007.81;5011951;28;20505;-60
2022/08/11 14:18:32;;;;;;;3.80;2.80;;;;;;;31.33;28.65;101003.13;5012327;28;20395;-59
2022/08/11 14:23:49;;;;;;;3.25;2.95;;;;;;;31.22;30.23;101003.34;5011657;28;20901;-60
2022/08/11 14:26:23;;;;;;;4.70;3.30;;;;;;;31.30;30.27;101004.56;5011517;28;20474;-60
2022/08/11 14:28:56;;;;;;;3.65;3.25;;;;;;;31.32;30.49;101002.34;5011809;28;20384;-60
2022/08/11 14:31:26;;;;;;;4.10;3.40;;;;;;;31.34;30.32;101013.00;5011448;28;20985;-60
2022/08/11 14:33:56;;;;;;;6.22;3.20;;;;;;;31.30;30.34;101006.50;5011729;28;20384;-60
2022/08/11 14:36:25;;;;;;;4.22;3.00;;;;;;;31.08;30.62;101002.50;5011559;28;20420;-60
2022/08/11 14:38:52;;;;;;;5.47;3.30;;;;;;;31.12;30.52;100992.56;5010555;28;20379;-61
2022/08/11 14:47:04;;;;;;;4.43;3.25;;;;;;;31.29;30.34;100988.44;5011425;28;20465;-60
2022/08/11 14:49:35;;;;;;;3.55;3.10;;;;;;;31.31;29.95;100987.00;5011013;28;20391;-60
2022/08/11 14:52:07;;;;;;;5.20;3.38;;;;;;;31.29;29.77;100988.44;5011599;28;20450;-60
2022/08/11 14:57:21;;;;;;;5.25;3.15;;;;;;;31.16;29.91;100992.78;5011180;28;20451;-60
2022/08/11 14:59:49;;;;;;;3.20;3.00;;;;;;;30.92;29.94;100990.19;5011041;28;20387;-61
2022/08/11 15:05:03;;;;;;;3.50;3.20;;;;;;;30.68;30.21;100986.47;5011206;28;20382;-61
2022/08/11 15:07:31;;;;;;;4.70;3.20;;;;;;;30.54;29.98;100985.59;5011228;28;20380;-60
2022/08/11 15:10:02;;;;;;;3.85;3.10;;;;;;;30.43;30.14;100989.59;5011390;28;20384;-62
2022/08/11 15:12:32;;;;;;;3.40;3.10;;;;;;;30.45;30.23;100985.47;5011095;28;20402;-59
2022/08/11 15:17:44;;;;;;;3.60;3.30;;;;;;;30.42;31.49;100985.25;5010598;28;20398;-59
2022/08/11 15:25:47;;;;;;;5.63;3.60;;;;;;;30.16;32.85;100987.50;5010493;28;20394;-60
2022/08/11 15:37:25;;;;;;;4.32;3.90;;;;;;;30.04;33.16;100988.75;5010620;28;20455;-59
2022/08/11 15:48:32;;;;;;;4.20;3.60;;;;;;;29.76;33.28;100968.63;5083566;27;20402;-60
2022/08/11 15:51:08;;;;;;;3.87;3.47;;;;;;;29.90;33.52;100979.66;5055340;28;20463;-60
2022/08/11 15:53:41;;;;;;;4.35;3.58;;;;;;;29.95;33.36;100970.59;5050901;28;20382;-61
2022/08/11 15:56:08;;;;;;;4.10;3.70;;;;;;;29.97;33.43;100979.31;5060056;28;20472;-61
2022/08/11 16:04:15;;;;;;;3.78;3.42;;;;;;;29.66;34.45;100974.22;5046906;28;20385;-60
2022/08/11 16:06:49;;;;;;;5.85;3.67;;;;;;;29.55;34.58;100974.34;5046549;28;20413;-63
2022/08/11 16:09:19;;;;;;;4.68;3.30;;;;;;;29.45;34.95;100977.19;5047445;28;20399;-64
2022/08/11 16:11:46;;;;;;;4.80;3.83;;;;;;;29.53;34.70;100976.53;5058273;28;20897;-62
2022/08/11 16:17:00;;;;;;;5.22;3.55;;;;;;;29.45;35.09;100971.72;5047491;28;20969;-62
2022/08/11 16:19:34;;;;;;;4.38;3.63;;;;;;;29.53;35.06;100981.19;5057803;28;20917;-61
2022/08/11 16:22:00;;;;;;;5.28;3.55;;;;;;;29.60;35.08;100980.84;5057834;28;20384;-59
2022/08/11 16:24:27;;;;;;;5.18;3.40;;;;;;;29.50;35.11;100974.38;5052253;28;20373;-62
2022/08/11 16:26:55;;;;;;;6.05;3.63;;;;;;;29.40;35.37;100974.50;5053991;28;20461;-61
2022/08/11 16:29:22;;;;;;;6.20;3.72;;;;;;;29.24;35.66;100979.31;5057201;28;20487;-61
2022/08/11 16:32:15;;;;;;;4.97;3.65;;;;;;;29.22;35.69;100984.25;5055822;28;20384;-61
2022/08/11 16:40:08;;;;;;;5.13;4.68;;;;;;;29.08;35.65;100981.38;5050876;28;20397;-61
2022/08/11 16:48:07;;;;;;;7.93;4.85;;;;;;;28.88;36.15;100996.03;5057384;28;20941;-62
2022/08/11 16:50:33;;;;;;;6.32;5.10;;;;;;;28.86;36.41;100995.47;5065454;28;20380;-62
2022/08/11 16:52:59;;;;;;;5.97;5.07;;;;;;;28.85;36.46;100993.88;5064140;28;20387;-61
2022/08/11 16:55:25;;;;;;;5.53;4.90;;;;;;;28.82;36.52;100990.91;5096648;28;20384;-61
2022/08/11 17:00:36;;;;;;;8.52;5.40;;;;;;;28.75;36.41;101002.94;5051850;28;20410;-61
2022/08/11 17:14:44;;;;;;;4.53;4.13;;;;;;;28.48;37.03;101017.03;5052317;28;20431;-61
2022/08/11 17:17:17;;;;;;;4.55;4.15;;;;;;;28.50;36.99;101019.47;5051973;28;20472;-61
2022/08/11 17:24:39;;;;;;;4.67;3.80;;;;;;;28.38;37.26;101026.09;5107404;28;20395;-62
2022/08/11 17:27:07;;;;;;;4.20;3.80;;;;;;;28.30;37.21;101029.41;5107312;28;20372;-62